createdAt,value
2022-08-29T00:01:33.168Z,101265.13
2022-08-29T00:04:01.324Z,101272.50
2022-08-29T00:06:30.487Z,101230.00
2022-08-29T00:08:58.273Z,101241.25
2022-08-29T00:11:26.182Z,101255.94
2022-08-29T00:13:55.362Z,101253.44
2022-08-29T00:16:23.176Z,101253.78
2022-08-29T00:18:51.110Z,101242.06
2022-08-29T00:21:18.976Z,101240.72
2022-08-29T00:23:46.878Z,101243.75
2022-08-29T00:26:14.701Z,101246.44
2022-08-29T00:28:42.698Z,101241.09
2022-08-29T00:31:12.390Z,101259.00
2022-08-29T00:33:40.243Z,101250.31
2022-08-29T00:36:09.612Z,101261.19
2022-08-29T00:38:38.388Z,101250.47
2022-08-29T00:41:06.908Z,101255.19
2022-08-29T00:43:37.753Z,101257.22
2022-08-29T00:46:38.724Z,101260.41
2022-08-29T00:49:10.070Z,101250.22
2022-08-29T00:51:38.010Z,101261.72
2022-08-29T00:54:10.669Z,101261.44
2022-08-29T00:56:40.403Z,101260.09
2022-08-29T00:59:11.730Z,101248.88
2022-08-29T01:01:41.220Z,101253.06
2022-08-29T01:04:22.638Z,101251.59
2022-08-29T01:06:53.333Z,101250.06
2022-08-29T01:09:21.949Z,101234.88
2022-08-29T01:12:07.521Z,101260.44
2022-08-29T01:14:38.562Z,101255.78
2022-08-29T01:17:10.436Z,101259.47
2022-08-29T01:19:45.519Z,101263.16
2022-08-29T01:22:34.943Z,101275.34
2022-08-29T01:25:09.256Z,101278.03
2022-08-29T01:27:40.816Z,101281.03
2022-08-29T01:30:10.366Z,101278.53
2022-08-29T01:32:38.134Z,101292.25
2022-08-29T01:35:08.565Z,101278.03
2022-08-29T01:37:39.399Z,101278.38
2022-08-29T01:40:10.125Z,101283.06
2022-08-29T01:42:37.984Z,101274.81
2022-08-29T01:45:10.001Z,101283.50
2022-08-29T01:47:39.043Z,101294.06
2022-08-29T01:50:09.737Z,101287.19
2022-08-29T01:52:37.547Z,101284.53
2022-08-29T01:55:06.546Z,101285.84
2022-08-29T01:57:37.905Z,101293.72
2022-08-29T02:00:08.280Z,101295.22
2022-08-29T02:02:38.334Z,101289.34
2022-08-29T02:05:07.427Z,101301.91
2022-08-29T02:07:35.228Z,101294.34
2022-08-29T02:10:03.224Z,101296.72
2022-08-29T02:12:31.643Z,101292.03
2022-08-29T02:15:00.996Z,101283.66
2022-08-29T02:17:29.607Z,101291.53
2022-08-29T02:19:57.386Z,101288.69
2022-08-29T02:22:25.835Z,101279.94
2022-08-29T02:24:53.775Z,101298.88
2022-08-29T02:27:21.590Z,101296.03
2022-08-29T02:29:49.386Z,101304.22
2022-08-29T02:32:18.758Z,101290.31
2022-08-29T02:34:48.676Z,101294.31
2022-08-29T02:37:17.559Z,101291.00
2022-08-29T02:39:45.371Z,101288.00
2022-08-29T02:42:13.183Z,101293.53
2022-08-29T02:44:40.994Z,101272.59
2022-08-29T02:47:09.661Z,101289.34
2022-08-29T02:49:39.710Z,101291.31
2022-08-29T02:52:08.566Z,101279.63
2022-08-29T02:54:36.859Z,101286.31
2022-08-29T02:57:05.430Z,101290.66
2022-08-29T02:59:33.355Z,101289.50
2022-08-29T03:02:01.248Z,101286.31
2022-08-29T03:04:29.090Z,101277.94
2022-08-29T03:06:58.176Z,101281.94
2022-08-29T03:09:25.913Z,101282.94
2022-08-29T03:11:56.371Z,101267.38
2022-08-29T03:14:24.243Z,101273.41
2022-08-29T03:16:52.119Z,101266.91
2022-08-29T03:19:20.040Z,101253.16
2022-08-29T03:21:47.793Z,101266.03
2022-08-29T03:24:16.894Z,101270.06
2022-08-29T03:26:56.246Z,101256.84
2022-08-29T03:29:25.508Z,101257.69
2022-08-29T03:31:53.723Z,101260.72
2022-08-29T03:34:21.759Z,101226.06
2022-08-29T03:36:49.959Z,101256.53
2022-08-29T03:39:19.209Z,101257.03
2022-08-29T03:41:47.106Z,101253.16
2022-08-29T03:44:14.929Z,101254.84
2022-08-29T03:46:43.114Z,101244.13
2022-08-29T03:49:11.887Z,101254.84
2022-08-29T03:51:40.570Z,101250.66
2022-08-29T03:54:08.842Z,101253.47
2022-08-29T03:56:37.960Z,101248.81
2022-08-29T03:59:05.791Z,101250.81
2022-08-29T04:01:33.717Z,101233.38
2022-08-29T04:04:01.663Z,101216.91
2022-08-29T04:06:29.587Z,101249.75
2022-08-29T04:08:59.034Z,101225.63
2022-08-29T04:11:28.189Z,101229.47
2022-08-29T04:13:57.413Z,101241.50
2022-08-29T04:16:30.863Z,101243.88
2022-08-29T04:18:59.241Z,101248.25
2022-08-29T04:21:27.424Z,101244.00
2022-08-29T04:23:56.428Z,101252.88
2022-08-29T04:26:36.520Z,101253.03
2022-08-29T04:29:06.844Z,101251.34
2022-08-29T04:31:35.157Z,101262.03
2022-08-29T04:34:03.888Z,101266.03
2022-08-29T04:36:31.730Z,101263.19
2022-08-29T04:38:59.586Z,101261.97
2022-08-29T04:41:28.087Z,101264.97
2022-08-29T04:43:55.895Z,101271.63
2022-08-29T04:46:25.369Z,101240.66
2022-08-29T04:48:54.131Z,101282.91
2022-08-29T04:51:23.295Z,101278.56
2022-08-29T04:53:52.093Z,101279.59
2022-08-29T04:56:21.286Z,101274.25
2022-08-29T04:58:50.624Z,101279.59
2022-08-29T05:01:21.692Z,101274.06
2022-08-29T05:03:52.420Z,101283.91
2022-08-29T05:06:22.519Z,101280.56
2022-08-29T05:08:55.018Z,101272.84
2022-08-29T05:11:28.975Z,101266.81
2022-08-29T05:13:57.139Z,101267.88
2022-08-29T05:16:24.979Z,101274.56
2022-08-29T05:18:54.203Z,101273.41
2022-08-29T05:21:27.173Z,101276.97
2022-08-29T05:23:57.198Z,101286.69
2022-08-29T05:26:25.070Z,101272.13
2022-08-29T05:28:52.892Z,101277.47
2022-08-29T05:31:22.323Z,101286.38
2022-08-29T05:33:50.408Z,101283.72
2022-08-29T05:36:20.145Z,101268.28
2022-08-29T05:38:48.310Z,101294.09
2022-08-29T05:41:16.204Z,101297.78
2022-08-29T05:43:44.190Z,101299.28
2022-08-29T05:46:12.453Z,101308.13
2022-08-29T05:48:42.767Z,101311.81
2022-08-29T05:51:16.425Z,101317.47
2022-08-29T05:53:46.355Z,101315.81
2022-08-29T05:56:22.476Z,101309.56
2022-08-29T05:58:50.449Z,101315.91
2022-08-29T06:01:23.702Z,101316.44
2022-08-29T06:03:54.476Z,101321.47
2022-08-29T06:06:23.480Z,101318.63
2022-08-29T06:08:54.189Z,101321.63
2022-08-29T06:11:24.199Z,101317.97
2022-08-29T06:13:52.027Z,101317.34
2022-08-29T06:16:22.122Z,101312.69
2022-08-29T06:18:50.039Z,101323.38
2022-08-29T06:21:18.844Z,101333.44
2022-08-29T06:23:47.402Z,101314.34
2022-08-29T06:26:17.616Z,101323.75
2022-08-29T06:28:47.463Z,101325.41
2022-08-29T06:31:17.490Z,101326.41
2022-08-29T06:33:45.432Z,101327.47
2022-08-29T06:36:13.474Z,101323.94
2022-08-29T06:38:41.230Z,101327.13
2022-08-29T06:41:11.683Z,101337.16
2022-08-29T06:43:41.485Z,101331.13
2022-08-29T06:46:10.259Z,101339.50
2022-08-29T06:48:38.156Z,101345.53
2022-08-29T06:51:06.070Z,101346.75
2022-08-29T06:53:37.452Z,101344.38
2022-08-29T06:56:06.844Z,101317.94
2022-08-29T06:58:41.275Z,101340.19
2022-08-29T07:01:11.206Z,101334.16
2022-08-29T07:03:39.237Z,101345.22
2022-08-29T07:06:07.126Z,101348.41
2022-08-29T07:08:35.358Z,101345.53
2022-08-29T07:11:03.885Z,101344.22
2022-08-29T07:13:32.155Z,101345.22
2022-08-29T07:16:01.475Z,101345.22
2022-08-29T07:18:29.656Z,101342.53
2022-08-29T07:20:57.435Z,101359.34
2022-08-29T07:23:25.219Z,101362.00
2022-08-29T07:25:53.636Z,101357.34
2022-08-29T07:28:21.395Z,101362.84
2022-08-29T07:30:49.229Z,101360.00
2022-08-29T07:33:18.430Z,101360.00
2022-08-29T07:35:49.186Z,101363.00
2022-08-29T07:38:17.015Z,101348.63
2022-08-29T07:40:44.952Z,101340.59
2022-08-29T07:43:16.510Z,101344.47
2022-08-29T07:45:47.156Z,101342.63
2022-08-29T07:48:15.975Z,101344.97
2022-08-29T07:50:47.179Z,101345.63
2022-08-29T07:53:15.114Z,101347.47
2022-08-29T07:55:43.082Z,101346.13
2022-08-29T07:58:11.434Z,101343.94
2022-08-29T08:00:39.275Z,101339.94
2022-08-29T08:03:08.611Z,101348.97
2022-08-29T08:05:36.403Z,101348.31
2022-08-29T08:08:15.029Z,101355.69
2022-08-29T08:10:43.523Z,101349.66
2022-08-29T08:13:11.458Z,101348.16
2022-08-29T08:15:40.063Z,101330.56
2022-08-29T08:18:08.151Z,101350.13
2022-08-29T08:20:36.524Z,101347.44
2022-08-29T08:23:09.032Z,101354.00
2022-08-29T08:25:36.992Z,101350.66
2022-08-29T08:28:04.867Z,101353.97
2022-08-29T08:30:35.774Z,101348.09
2022-08-29T08:33:04.228Z,101348.78
2022-08-29T08:35:35.617Z,101352.94
2022-08-29T08:38:05.247Z,101356.31
2022-08-29T08:40:33.920Z,101347.28
2022-08-29T08:43:03.533Z,101345.25
2022-08-29T08:45:37.403Z,101337.56
2022-08-29T08:48:10.142Z,101343.06
2022-08-29T08:50:44.519Z,101339.69
2022-08-29T08:53:19.330Z,101324.50
2022-08-29T08:55:50.343Z,101334.50
2022-08-29T08:58:36.870Z,101343.19
2022-08-29T09:01:14.358Z,101349.88
2022-08-29T09:04:13.259Z,101346.69
2022-08-29T09:07:07.554Z,101350.69
2022-08-29T09:09:51.671Z,101351.66
2022-08-29T09:12:32.483Z,101351.81
2022-08-29T09:15:08.119Z,101351.31
2022-08-29T09:17:46.117Z,101345.09
2022-08-29T09:20:18.024Z,101350.13
2022-08-29T09:22:56.488Z,101357.19
2022-08-29T09:25:28.154Z,101351.31
2022-08-29T09:27:58.127Z,101351.63
2022-08-29T09:30:29.643Z,101349.78
2022-08-29T09:33:01.884Z,101349.28
2022-08-29T09:35:37.103Z,101347.03
2022-08-29T09:38:08.238Z,101344.63
2022-08-29T09:40:52.333Z,101349.81
2022-08-29T09:43:24.789Z,101339.59
2022-08-29T09:46:08.177Z,101343.88
2022-08-29T09:48:37.392Z,101342.34
2022-08-29T09:51:14.816Z,101339.53
2022-08-29T09:53:42.785Z,101340.53
2022-08-29T09:56:18.983Z,101342.81
2022-08-29T09:58:47.035Z,101339.13
2022-08-29T10:01:20.241Z,101336.75
2022-08-29T10:03:57.001Z,101341.25
2022-08-29T10:06:26.619Z,101333.41
2022-08-29T10:09:01.276Z,101337.88
2022-08-29T10:11:35.523Z,101340.41
2022-08-29T10:14:07.399Z,101342.81
2022-08-29T10:16:55.228Z,101330.38
2022-08-29T10:19:33.145Z,101331.28
2022-08-29T10:22:11.174Z,101329.50
2022-08-29T10:24:55.463Z,101331.16
2022-08-29T10:27:33.159Z,101324.13
2022-08-29T10:30:08.681Z,101328.66
2022-08-29T10:33:04.616Z,101331.38
2022-08-29T10:35:38.506Z,101308.03
2022-08-29T10:38:15.358Z,101328.06
2022-08-29T10:40:48.562Z,101320.13
2022-08-29T10:43:29.627Z,101330.97
2022-08-29T10:46:22.511Z,101319.88
2022-08-29T10:49:00.146Z,101309.78
2022-08-29T10:51:37.427Z,101319.59
2022-08-29T10:54:16.850Z,101310.34
2022-08-29T10:56:47.465Z,101303.94
2022-08-29T10:59:24.924Z,101312.69
2022-08-29T11:02:01.169Z,101302.34
2022-08-29T11:04:35.522Z,101302.16
2022-08-29T11:07:07.342Z,101298.22
2022-08-29T11:09:41.292Z,101292.56
2022-08-29T11:12:17.686Z,101291.09
2022-08-29T11:14:54.119Z,101293.34
2022-08-29T11:17:26.121Z,101288.50
2022-08-29T11:20:01.941Z,101288.69
2022-08-29T11:22:35.963Z,101287.00
2022-08-29T11:25:10.179Z,101289.88
2022-08-29T11:27:47.555Z,101287.78
2022-08-29T11:30:22.002Z,101281.69
2022-08-29T11:33:03.866Z,101283.72
2022-08-29T11:35:44.962Z,101280.50
2022-08-29T11:38:59.124Z,101284.34
2022-08-29T11:41:30.264Z,101281.41
2022-08-29T11:44:09.672Z,101266.28
2022-08-29T11:46:42.296Z,101284.03
2022-08-29T11:49:36.200Z,101280.97
2022-08-29T11:52:22.495Z,101273.91
2022-08-29T11:55:16.238Z,101283.09
2022-08-29T11:57:51.076Z,101280.91
2022-08-29T12:00:36.212Z,101273.94
2022-08-29T12:03:15.153Z,101272.28
2022-08-29T12:05:59.389Z,101265.22
2022-08-29T12:08:37.207Z,101270.88
2022-08-29T12:11:06.659Z,101266.31
2022-08-29T12:14:02.638Z,101270.38
2022-08-29T12:16:49.737Z,101263.66
2022-08-29T12:19:48.693Z,101257.16
2022-08-29T12:22:55.268Z,101260.47
2022-08-29T12:28:47.689Z,101257.16
2022-08-29T12:32:08.465Z,101255.63
2022-08-29T12:34:49.145Z,101251.69
2022-08-29T12:37:49.992Z,101240.22
2022-08-29T12:40:42.642Z,101240.81
2022-08-29T12:43:30.779Z,101236.47
2022-08-29T12:45:59.703Z,101239.19
2022-08-29T12:48:33.316Z,101233.50
2022-08-29T12:51:01.984Z,101224.28
2022-08-29T12:53:34.945Z,101213.16
2022-08-29T12:56:05.478Z,101219.41
2022-08-29T12:58:41.639Z,101207.16
2022-08-29T13:01:22.822Z,101209.25
2022-08-29T13:04:02.804Z,101206.91
2022-08-29T13:06:31.315Z,101218.47
2022-08-29T13:09:00.963Z,101225.94
2022-08-29T13:11:31.247Z,101216.97
2022-08-29T13:14:09.258Z,101207.69
2022-08-29T13:16:38.977Z,101210.34
2022-08-29T13:19:18.621Z,101203.34
2022-08-29T13:21:46.503Z,101199.91
2022-08-29T13:24:20.262Z,101208.81
2022-08-29T13:27:04.663Z,101203.84
2022-08-29T13:29:38.770Z,101202.97
2022-08-29T13:32:18.663Z,101199.16
2022-08-29T13:35:01.263Z,101190.44
2022-08-29T13:37:31.215Z,101207.59
2022-08-29T13:40:32.416Z,101204.81
2022-08-29T13:43:02.011Z,101193.19
2022-08-29T13:45:30.098Z,101189.84
2022-08-29T13:48:18.371Z,101164.91
2022-08-29T13:53:19.215Z,101182.47
2022-08-29T13:55:48.411Z,101183.75
2022-08-29T13:58:24.144Z,101181.50
2022-08-29T14:00:52.003Z,101180.59
2022-08-29T14:03:36.517Z,101168.09
2022-08-29T14:06:05.191Z,101165.25
2022-08-29T14:08:34.219Z,101163.84
2022-08-29T14:11:05.419Z,101154.09
2022-08-29T14:13:39.173Z,101163.66
2022-08-29T14:16:07.390Z,101138.03
2022-08-29T14:18:35.160Z,101152.56
2022-08-29T14:21:03.058Z,101153.69
2022-08-29T14:23:30.910Z,101153.66
2022-08-29T14:25:58.913Z,101130.38
2022-08-29T14:31:22.923Z,101149.66
2022-08-29T14:33:51.673Z,101152.13
2022-08-29T14:36:19.691Z,101160.44
2022-08-29T14:38:55.395Z,101161.97
2022-08-29T14:41:23.282Z,101131.97
2022-08-29T14:43:51.126Z,101151.66
2022-08-29T14:46:19.128Z,101144.84
2022-08-29T14:48:48.400Z,101139.94
2022-08-29T14:51:16.220Z,101141.63
2022-08-29T14:53:54.221Z,101140.81
2022-08-29T14:56:47.004Z,101144.41
2022-08-29T14:59:15.779Z,101143.38
2022-08-29T15:01:43.656Z,101138.00
2022-08-29T15:04:12.899Z,101140.53
2022-08-29T15:06:41.931Z,101134.34
2022-08-29T15:09:09.739Z,101125.13
2022-08-29T15:11:37.584Z,101127.63
2022-08-29T15:14:06.059Z,101126.50
2022-08-29T15:16:33.987Z,101121.69
2022-08-29T15:21:52.511Z,101113.97
2022-08-29T15:24:20.489Z,101113.66
2022-08-29T15:26:48.265Z,101111.63
2022-08-29T15:29:16.018Z,101109.94
2022-08-29T15:31:43.998Z,101101.06
2022-08-29T15:34:11.762Z,101100.03
2022-08-29T15:36:39.546Z,101099.41
2022-08-29T15:39:09.586Z,101096.28
2022-08-29T15:41:37.675Z,101091.75
2022-08-29T15:44:05.430Z,101088.88
2022-08-29T15:46:33.696Z,101083.25
2022-08-29T15:49:07.881Z,101095.63
2022-08-29T15:51:36.929Z,101091.47
2022-08-29T15:54:05.543Z,101090.47
2022-08-29T15:56:36.019Z,101084.41
2022-08-29T15:59:06.014Z,101076.16
2022-08-29T16:01:37.424Z,101083.16
2022-08-29T16:04:09.018Z,101091.06
2022-08-29T16:06:37.233Z,101090.34
2022-08-29T16:09:09.083Z,101062.13
2022-08-29T16:11:46.219Z,101083.59
2022-08-29T16:17:02.624Z,101076.59
2022-08-29T16:19:30.440Z,101040.88
2022-08-29T16:22:00.029Z,101075.53
2022-08-29T16:24:30.315Z,101057.13
2022-08-29T16:27:01.032Z,101079.72
2022-08-29T16:29:29.575Z,101072.94
2022-08-29T16:31:58.414Z,101075.44
2022-08-29T16:34:26.933Z,101073.78
2022-08-29T16:36:57.002Z,101079.00
2022-08-29T16:39:25.211Z,101056.81
2022-08-29T16:41:53.626Z,101061.00
2022-08-29T16:44:23.630Z,101076.53
2022-08-29T16:46:51.563Z,101071.78
2022-08-29T16:49:19.979Z,101070.16
2022-08-29T16:51:48.476Z,101075.13
2022-08-29T16:54:16.486Z,101077.81
2022-08-29T16:56:44.615Z,101074.53
2022-08-29T16:59:12.597Z,101073.72
2022-08-29T17:01:44.654Z,101070.59
2022-08-29T17:04:16.580Z,101054.44
2022-08-29T17:06:46.544Z,101065.69
2022-08-29T17:09:14.119Z,101062.16
2022-08-29T17:11:41.682Z,101067.34
2022-08-29T17:14:09.901Z,101070.72
2022-08-29T17:16:40.457Z,101056.81
2022-08-29T17:19:10.010Z,101060.31
2022-08-29T17:21:37.943Z,101063.44
2022-08-29T17:24:07.768Z,101047.91
2022-08-29T17:26:36.864Z,101060.34
2022-08-29T17:29:08.854Z,101071.16
2022-08-29T17:31:38.601Z,101069.91
2022-08-29T17:34:09.547Z,101070.31
2022-08-29T17:36:39.811Z,101070.75
2022-08-29T17:39:08.345Z,101067.44
2022-08-29T17:41:37.162Z,101059.09
2022-08-29T17:44:06.845Z,101059.13
2022-08-29T17:46:35.194Z,101057.28
2022-08-29T17:49:07.670Z,101060.41
2022-08-29T17:51:38.549Z,101063.75
2022-08-29T17:54:12.285Z,101067.72
2022-08-29T17:56:44.418Z,101063.75
2022-08-29T17:59:13.160Z,101064.19
2022-08-29T18:01:41.417Z,101046.75
2022-08-29T18:04:09.600Z,101075.00
2022-08-29T18:06:39.049Z,101065.44
2022-08-29T18:09:08.651Z,101070.22
2022-08-29T18:11:38.874Z,101075.41
2022-08-29T18:14:06.972Z,101059.66
2022-08-29T18:16:34.979Z,101057.56
2022-08-29T18:19:03.165Z,101041.34
2022-08-29T18:21:31.536Z,101065.84
2022-08-29T18:24:01.010Z,101059.81
2022-08-29T18:26:29.178Z,101057.53
2022-08-29T18:28:57.073Z,101065.44
2022-08-29T18:31:24.964Z,101062.94
2022-08-29T18:34:01.294Z,101063.34
2022-08-29T18:36:29.869Z,101059.19
2022-08-29T18:38:57.962Z,101043.19
2022-08-29T18:41:27.712Z,100995.88
2022-08-29T18:43:55.679Z,101058.97
2022-08-29T18:46:23.726Z,101055.03
2022-08-29T18:48:52.724Z,101064.59
2022-08-29T18:51:21.302Z,101074.13
2022-08-29T18:53:49.352Z,101066.63
2022-08-29T18:56:17.395Z,101069.13
2022-08-29T18:58:46.598Z,101072.03
2022-08-29T19:01:27.355Z,101066.41
2022-08-29T19:03:57.024Z,101071.56
2022-08-29T19:06:25.840Z,101068.28
2022-08-29T19:08:54.232Z,101057.50
2022-08-29T19:11:22.060Z,101063.28
2022-08-29T19:13:52.188Z,101026.88
2022-08-29T19:16:22.037Z,101072.78
2022-08-29T19:18:50.410Z,101056.34
2022-08-29T19:21:17.278Z,101064.88
2022-08-29T19:23:52.028Z,101071.72
2022-08-29T19:26:23.979Z,101077.09
2022-08-29T19:28:55.409Z,101085.97
2022-08-29T19:31:27.019Z,101072.31
2022-08-29T19:33:54.958Z,101077.69
2022-08-29T19:36:23.424Z,101061.22
2022-08-29T19:38:51.431Z,101085.09
2022-08-29T19:41:19.866Z,101088.81
2022-08-29T19:43:48.028Z,101087.16
2022-08-29T19:46:20.006Z,101081.78
2022-08-29T19:48:50.891Z,101085.50
2022-08-29T19:51:25.556Z,100996.91
2022-08-29T19:53:58.204Z,100989.88
2022-08-29T19:56:26.416Z,101080.53
2022-08-29T19:58:56.570Z,101078.03
2022-08-29T20:01:27.261Z,101056.38
2022-08-29T20:03:58.280Z,101078.81
2022-08-29T20:06:26.933Z,101072.81
2022-08-29T20:08:54.984Z,101076.72
2022-08-29T20:11:27.800Z,101072.56
2022-08-29T20:13:57.305Z,101058.00
2022-08-29T20:16:30.429Z,101075.88
2022-08-29T20:18:59.673Z,101075.44
2022-08-29T20:21:28.741Z,101076.47
2022-08-29T20:23:58.273Z,101074.16
2022-08-29T20:26:28.448Z,101061.22
2022-08-29T20:28:58.272Z,101076.22
2022-08-29T20:31:28.387Z,101072.91
2022-08-29T20:33:56.604Z,101079.94
2022-08-29T20:36:42.737Z,101078.31
2022-08-29T20:39:13.538Z,101081.16
2022-08-29T20:41:42.013Z,101077.81
2022-08-29T20:44:17.691Z,101083.59
2022-08-29T20:46:47.933Z,101085.28
2022-08-29T20:49:18.979Z,101077.13
2022-08-29T20:51:46.859Z,101080.28
2022-08-29T20:54:16.493Z,101087.31
2022-08-29T20:56:44.691Z,101085.47
2022-08-29T20:59:12.740Z,101082.13
2022-08-29T21:01:41.693Z,101085.84
2022-08-29T21:04:29.494Z,101078.59
2022-08-29T21:06:58.819Z,101078.38
2022-08-29T21:09:27.118Z,101085.63
2022-08-29T21:11:55.334Z,101078.59
2022-08-29T21:14:23.850Z,101081.88
2022-08-29T21:16:53.348Z,101082.94
2022-08-29T21:19:23.792Z,101083.13
2022-08-29T21:21:51.635Z,101083.53
2022-08-29T21:24:20.345Z,101076.47
2022-08-29T21:26:48.992Z,101083.72
2022-08-29T21:29:17.648Z,101086.16
2022-08-29T21:31:45.541Z,101079.28
2022-08-29T21:34:13.448Z,101082.00
2022-08-29T21:36:43.154Z,101075.78
2022-08-29T21:39:13.625Z,101052.25
2022-08-29T21:41:47.830Z,101077.41
2022-08-29T21:44:17.495Z,101089.66
2022-08-29T21:46:46.875Z,101078.44
2022-08-29T21:49:19.306Z,101084.66
2022-08-29T21:51:49.122Z,101084.66
2022-08-29T21:54:18.543Z,101076.72
2022-08-29T21:56:46.962Z,101087.97
2022-08-29T21:59:17.365Z,101070.56
2022-08-29T22:01:46.476Z,101076.38
2022-08-29T22:04:28.517Z,101084.84
2022-08-29T22:06:59.711Z,101083.38
2022-08-29T22:09:29.250Z,101088.31
2022-08-29T22:11:57.306Z,101087.47
2022-08-29T22:14:45.661Z,101098.66
2022-08-29T22:17:12.605Z,101090.97
2022-08-29T22:19:40.738Z,101095.06
2022-08-29T22:22:10.228Z,101094.69
2022-08-29T22:24:38.466Z,101105.44
2022-08-29T22:27:06.720Z,101094.69
2022-08-29T22:29:34.590Z,101091.09
2022-08-29T22:32:02.404Z,101092.38
2022-08-29T22:34:30.327Z,101100.72
2022-08-29T22:36:58.094Z,101102.75
2022-08-29T22:39:27.283Z,101103.13
2022-08-29T22:41:55.432Z,101100.44
2022-08-29T22:45:02.107Z,101107.03
2022-08-29T22:47:11.198Z,101106.59
2022-08-29T22:49:39.995Z,101113.44
2022-08-29T22:52:11.393Z,101109.72
2022-08-29T22:54:41.259Z,101111.22
2022-08-29T22:57:11.300Z,101113.63
2022-08-29T22:59:39.992Z,101108.25
2022-08-29T23:02:09.464Z,101105.19
2022-08-29T23:04:37.584Z,101112.63
2022-08-29T23:07:06.249Z,101119.28
2022-08-29T23:09:35.621Z,101112.22
2022-08-29T23:12:06.718Z,101114.94
2022-08-29T23:14:36.044Z,101114.28
2022-08-29T23:17:04.461Z,101110.56
2022-08-29T23:19:32.423Z,101111.59
2022-08-29T23:22:00.267Z,101105.19
2022-08-29T23:24:30.378Z,101111.59
2022-08-29T23:26:58.267Z,101103.28
2022-08-29T23:29:29.512Z,101111.75
2022-08-29T23:31:57.445Z,101117.78
2022-08-29T23:34:25.442Z,101115.66
2022-08-29T23:36:53.275Z,101111.66
2022-08-29T23:39:21.095Z,101108.53
2022-08-29T23:41:49.049Z,101103.72
2022-08-29T23:44:17.209Z,101104.47
2022-08-29T23:46:46.573Z,101094.03
2022-08-29T23:49:14.471Z,101098.50
2022-08-29T23:51:42.284Z,101099.28
2022-08-29T23:54:10.145Z,101100.41
2022-08-29T23:56:37.970Z,101104.72
2022-08-29T23:59:05.795Z,101101.19
